sensor_id;sensor_type;location;lat;lon;timestamp;temperature;humidity
33955;DHT22;20233;50.804;7.126;2022-10-16T00:01:47;15.70;99.90
33955;DHT22;20233;50.804;7.126;2022-10-16T00:04:13;15.70;99.90
33955;DHT22;20233;50.804;7.126;2022-10-16T00:06:39;15.70;99.90
33955;DHT22;20233;50.804;7.126;2022-10-16T00:09:05;15.70;99.90
33955;DHT22;20233;50.804;7.126;2022-10-16T00:11:33;15.70;99.90
33955;DHT22;20233;50.804;7.126;2022-10-16T00:14:03;15.60;99.90
33955;DHT22;20233;50.804;7.126;2022-10-16T00:16:29;15.60;99.90
33955;DHT22;20233;50.804;7.126;2022-10-16T00:18:55;15.60;99.90
33955;DHT22;20233;50.804;7.126;2022-10-16T00:21:25;15.60;99.90
33955;DHT22;20233;50.804;7.126;2022-10-16T00:23:52;15.50;99.90
33955;DHT22;20233;50.804;7.126;2022-10-16T00:26:19;15.50;99.90
33955;DHT22;20233;50.804;7.126;2022-10-16T00:28:48;15.50;99.90
33955;DHT22;20233;50.804;7.126;2022-10-16T00:31:16;15.50;99.90
33955;DHT22;20233;50.804;7.126;2022-10-16T00:36:12;15.40;99.90
33955;DHT22;20233;50.804;7.126;2022-10-16T00:38:38;15.40;99.90
33955;DHT22;20233;50.804;7.126;2022-10-16T00:41:06;15.40;99.90
33955;DHT22;20233;50.804;7.126;2022-10-16T00:49:06;15.40;99.90
33955;DHT22;20233;50.804;7.126;2022-10-16T00:54:10;15.40;99.90
33955;DHT22;20233;50.804;7.126;2022-10-16T00:56:37;15.40;99.90
33955;DHT22;20233;50.804;7.126;2022-10-16T01:01:50;15.30;99.90
33955;DHT22;20233;50.804;7.126;2022-10-16T01:04:34;15.30;99.90
33955;DHT22;20233;50.804;7.126;2022-10-16T01:07:14;15.30;99.90
33955;DHT22;20233;50.804;7.126;2022-10-16T01:10:17;15.30;99.90
33955;DHT22;20233;50.804;7.126;2022-10-16T01:12:55;15.20;99.90
33955;DHT22;20233;50.804;7.126;2022-10-16T01:15:48;15.30;99.90
33955;DHT22;20233;50.804;7.126;2022-10-16T01:21:01;15.20;99.90
33955;DHT22;20233;50.804;7.126;2022-10-16T01:23:39;15.20;99.90
33955;DHT22;20233;50.804;7.126;2022-10-16T01:28:55;15.20;99.90
33955;DHT22;20233;50.804;7.126;2022-10-16T01:31:24;15.10;99.90
33955;DHT22;20233;50.804;7.126;2022-10-16T01:33:58;15.10;99.90
33955;DHT22;20233;50.804;7.126;2022-10-16T01:36:31;15.10;99.90
33955;DHT22;20233;50.804;7.126;2022-10-16T01:39:02;15.10;99.90
33955;DHT22;20233;50.804;7.126;2022-10-16T01:41:33;15.10;99.90
33955;DHT22;20233;50.804;7.126;2022-10-16T01:44:03;15.10;99.90
33955;DHT22;20233;50.804;7.126;2022-10-16T01:46:31;15.00;99.90
33955;DHT22;20233;50.804;7.126;2022-10-16T01:48:59;15.10;99.90
33955;DHT22;20233;50.804;7.126;2022-10-16T01:51:26;15.00;99.90
33955;DHT22;20233;50.804;7.126;2022-10-16T01:53:55;15.00;99.90
33955;DHT22;20233;50.804;7.126;2022-10-16T01:56:22;15.00;99.90
33955;DHT22;20233;50.804;7.126;2022-10-16T01:59:02;14.90;99.90
33955;DHT22;20233;50.804;7.126;2022-10-16T02:01:31;14.90;99.90
33955;DHT22;20233;50.804;7.126;2022-10-16T02:04:04;14.90;99.90
33955;DHT22;20233;50.804;7.126;2022-10-16T02:06:32;14.90;99.90
33955;DHT22;20233;50.804;7.126;2022-10-16T02:08:59;14.90;99.90
33955;DHT22;20233;50.804;7.126;2022-10-16T02:11:24;14.90;99.90
33955;DHT22;20233;50.804;7.126;2022-10-16T02:13:58;14.90;99.90
33955;DHT22;20233;50.804;7.126;2022-10-16T02:16:34;14.90;99.90
33955;DHT22;20233;50.804;7.126;2022-10-16T02:19:01;14.90;99.90
33955;DHT22;20233;50.804;7.126;2022-10-16T02:21:30;14.90;99.90
33955;DHT22;20233;50.804;7.126;2022-10-16T02:24:18;14.90;99.90
33955;DHT22;20233;50.804;7.126;2022-10-16T02:27:17;14.90;99.90
33955;DHT22;20233;50.804;7.126;2022-10-16T02:29:49;14.90;99.90
33955;DHT22;20233;50.804;7.126;2022-10-16T02:32:20;14.90;99.90
33955;DHT22;20233;50.804;7.126;2022-10-16T02:34:48;14.90;99.90
33955;DHT22;20233;50.804;7.126;2022-10-16T02:37:15;14.90;99.90
33955;DHT22;20233;50.804;7.126;2022-10-16T02:39:41;15.00;99.90
33955;DHT22;20233;50.804;7.126;2022-10-16T02:42:14;15.00;99.90
33955;DHT22;20233;50.804;7.126;2022-10-16T02:44:40;15.00;99.90
33955;DHT22;20233;50.804;7.126;2022-10-16T02:47:06;15.00;99.90
33955;DHT22;20233;50.804;7.126;2022-10-16T02:49:32;15.00;99.90
33955;DHT22;20233;50.804;7.126;2022-10-16T02:51:57;15.00;99.90
33955;DHT22;20233;50.804;7.126;2022-10-16T02:54:23;15.00;99.90
33955;DHT22;20233;50.804;7.126;2022-10-16T02:56:49;15.00;99.90
33955;DHT22;20233;50.804;7.126;2022-10-16T02:59:15;15.00;99.90
33955;DHT22;20233;50.804;7.126;2022-10-16T03:01:41;15.00;99.90
33955;DHT22;20233;50.804;7.126;2022-10-16T03:04:07;15.00;99.90
33955;DHT22;20233;50.804;7.126;2022-10-16T03:06:32;15.00;99.90
33955;DHT22;20233;50.804;7.126;2022-10-16T03:08:58;15.00;99.90
33955;DHT22;20233;50.804;7.126;2022-10-16T03:11:23;15.00;99.90
33955;DHT22;20233;50.804;7.126;2022-10-16T03:13:49;15.00;99.90
33955;DHT22;20233;50.804;7.126;2022-10-16T03:16:14;15.00;99.90
33955;DHT22;20233;50.804;7.126;2022-10-16T03:18:40;15.00;99.90
33955;DHT22;20233;50.804;7.126;2022-10-16T03:21:06;15.10;99.90
33955;DHT22;20233;50.804;7.126;2022-10-16T03:23:31;15.10;99.90
33955;DHT22;20233;50.804;7.126;2022-10-16T03:25:57;15.10;99.90
33955;DHT22;20233;50.804;7.126;2022-10-16T03:28:22;15.10;99.90
33955;DHT22;20233;50.804;7.126;2022-10-16T03:30:48;15.10;99.90
33955;DHT22;20233;50.804;7.126;2022-10-16T03:33:13;15.10;99.90
33955;DHT22;20233;50.804;7.126;2022-10-16T03:35:39;15.10;99.90
33955;DHT22;20233;50.804;7.126;2022-10-16T03:38:04;15.10;99.90
33955;DHT22;20233;50.804;7.126;2022-10-16T03:40:30;15.10;99.90
33955;DHT22;20233;50.804;7.126;2022-10-16T03:42:57;15.00;99.90
33955;DHT22;20233;50.804;7.126;2022-10-16T03:45:23;15.10;99.90
33955;DHT22;20233;50.804;7.126;2022-10-16T03:47:49;15.00;99.90
33955;DHT22;20233;50.804;7.126;2022-10-16T03:50:15;15.10;99.90
33955;DHT22;20233;50.804;7.126;2022-10-16T03:52:40;15.10;99.90
33955;DHT22;20233;50.804;7.126;2022-10-16T03:55:06;15.00;99.90
33955;DHT22;20233;50.804;7.126;2022-10-16T03:57:32;15.10;99.90
33955;DHT22;20233;50.804;7.126;2022-10-16T03:59:58;15.10;99.90
33955;DHT22;20233;50.804;7.126;2022-10-16T04:02:24;15.10;99.90
33955;DHT22;20233;50.804;7.126;2022-10-16T04:04:49;15.10;99.90
33955;DHT22;20233;50.804;7.126;2022-10-16T04:07:15;15.20;99.90
33955;DHT22;20233;50.804;7.126;2022-10-16T04:09:40;15.20;99.90
33955;DHT22;20233;50.804;7.126;2022-10-16T04:12:07;15.20;99.90
33955;DHT22;20233;50.804;7.126;2022-10-16T04:14:33;15.30;99.90
33955;DHT22;20233;50.804;7.126;2022-10-16T04:16:59;15.20;99.90
33955;DHT22;20233;50.804;7.126;2022-10-16T04:19:24;15.30;99.90
33955;DHT22;20233;50.804;7.126;2022-10-16T04:21:50;15.30;99.90
33955;DHT22;20233;50.804;7.126;2022-10-16T04:24:15;15.40;99.90
33955;DHT22;20233;50.804;7.126;2022-10-16T04:26:41;15.40;99.90
33955;DHT22;20233;50.804;7.126;2022-10-16T04:29:06;15.30;99.90
33955;DHT22;20233;50.804;7.126;2022-10-16T04:31:33;15.30;99.90
33955;DHT22;20233;50.804;7.126;2022-10-16T04:33:58;15.30;99.90
33955;DHT22;20233;50.804;7.126;2022-10-16T04:36:24;15.30;99.90
33955;DHT22;20233;50.804;7.126;2022-10-16T04:38:49;15.40;99.90
33955;DHT22;20233;50.804;7.126;2022-10-16T04:41:15;15.40;99.90
33955;DHT22;20233;50.804;7.126;2022-10-16T04:43:40;15.40;99.90
33955;DHT22;20233;50.804;7.126;2022-10-16T04:46:06;15.40;99.90
33955;DHT22;20233;50.804;7.126;2022-10-16T04:48:32;15.40;99.90
33955;DHT22;20233;50.804;7.126;2022-10-16T04:50:58;15.40;99.90
33955;DHT22;20233;50.804;7.126;2022-10-16T04:53:23;15.40;99.90
33955;DHT22;20233;50.804;7.126;2022-10-16T04:55:49;15.40;99.90
33955;DHT22;20233;50.804;7.126;2022-10-16T04:58:15;15.40;99.90
33955;DHT22;20233;50.804;7.126;2022-10-16T05:00:41;15.40;99.90
33955;DHT22;20233;50.804;7.126;2022-10-16T05:03:06;15.40;99.90
33955;DHT22;20233;50.804;7.126;2022-10-16T05:05:34;15.40;99.90
33955;DHT22;20233;50.804;7.126;2022-10-16T05:08:00;15.40;99.90
33955;DHT22;20233;50.804;7.126;2022-10-16T05:10:26;15.40;99.90
33955;DHT22;20233;50.804;7.126;2022-10-16T05:12:52;15.40;99.90
33955;DHT22;20233;50.804;7.126;2022-10-16T05:15:17;15.30;99.90
33955;DHT22;20233;50.804;7.126;2022-10-16T05:17:43;15.30;99.90
33955;DHT22;20233;50.804;7.126;2022-10-16T05:20:09;15.30;99.90
33955;DHT22;20233;50.804;7.126;2022-10-16T05:22:35;15.40;99.90
33955;DHT22;20233;50.804;7.126;2022-10-16T05:25:00;15.40;99.90
33955;DHT22;20233;50.804;7.126;2022-10-16T05:27:26;15.40;99.90
33955;DHT22;20233;50.804;7.126;2022-10-16T05:29:51;15.40;99.90
33955;DHT22;20233;50.804;7.126;2022-10-16T05:32:18;15.40;99.90
33955;DHT22;20233;50.804;7.126;2022-10-16T05:34:44;15.40;99.90
33955;DHT22;20233;50.804;7.126;2022-10-16T05:37:10;15.50;99.90
33955;DHT22;20233;50.804;7.126;2022-10-16T05:39:37;15.40;99.90
33955;DHT22;20233;50.804;7.126;2022-10-16T05:42:03;15.50;99.90
33955;DHT22;20233;50.804;7.126;2022-10-16T05:44:28;15.50;99.90
33955;DHT22;20233;50.804;7.126;2022-10-16T05:46:54;15.50;99.90
33955;DHT22;20233;50.804;7.126;2022-10-16T05:49:20;15.50;99.90
33955;DHT22;20233;50.804;7.126;2022-10-16T05:51:45;15.50;99.90
33955;DHT22;20233;50.804;7.126;2022-10-16T05:54:11;15.50;99.90
33955;DHT22;20233;50.804;7.126;2022-10-16T05:56:36;15.50;99.90
33955;DHT22;20233;50.804;7.126;2022-10-16T05:59:03;15.50;99.90
33955;DHT22;20233;50.804;7.126;2022-10-16T06:01:29;15.50;99.90
33955;DHT22;20233;50.804;7.126;2022-10-16T06:03:56;15.50;99.90
33955;DHT22;20233;50.804;7.126;2022-10-16T06:06:25;15.50;99.90
33955;DHT22;20233;50.804;7.126;2022-10-16T06:08:52;15.50;99.90
33955;DHT22;20233;50.804;7.126;2022-10-16T06:11:29;15.50;99.90
33955;DHT22;20233;50.804;7.126;2022-10-16T06:13:57;15.50;99.90
33955;DHT22;20233;50.804;7.126;2022-10-16T06:16:24;15.50;99.90
33955;DHT22;20233;50.804;7.126;2022-10-16T06:18:51;15.50;99.90
33955;DHT22;20233;50.804;7.126;2022-10-16T06:21:20;15.50;99.90
33955;DHT22;20233;50.804;7.126;2022-10-16T06:23:46;15.50;99.90
33955;DHT22;20233;50.804;7.126;2022-10-16T06:26:14;15.50;99.90
33955;DHT22;20233;50.804;7.126;2022-10-16T06:28:40;15.50;99.90
33955;DHT22;20233;50.804;7.126;2022-10-16T06:31:08;15.50;99.90
33955;DHT22;20233;50.804;7.126;2022-10-16T06:33:34;15.50;99.90
33955;DHT22;20233;50.804;7.126;2022-10-16T06:36:05;15.50;99.90
33955;DHT22;20233;50.804;7.126;2022-10-16T06:38:31;15.40;99.90
33955;DHT22;20233;50.804;7.126;2022-10-16T06:40:56;15.50;99.90
33955;DHT22;20233;50.804;7.126;2022-10-16T06:43:22;15.50;99.90
33955;DHT22;20233;50.804;7.126;2022-10-16T06:45:52;15.50;99.90
33955;DHT22;20233;50.804;7.126;2022-10-16T06:48:18;15.50;99.90
33955;DHT22;20233;50.804;7.126;2022-10-16T06:50:44;15.50;99.90
33955;DHT22;20233;50.804;7.126;2022-10-16T06:53:09;15.50;99.90
33955;DHT22;20233;50.804;7.126;2022-10-16T06:55:35;15.60;99.90
33955;DHT22;20233;50.804;7.126;2022-10-16T06:58:01;15.60;99.90
33955;DHT22;20233;50.804;7.126;2022-10-16T07:00:26;15.60;99.90
33955;DHT22;20233;50.804;7.126;2022-10-16T07:02:52;15.60;99.90
33955;DHT22;20233;50.804;7.126;2022-10-16T07:05:17;15.60;99.90
33955;DHT22;20233;50.804;7.126;2022-10-16T07:07:43;15.60;99.90
33955;DHT22;20233;50.804;7.126;2022-10-16T07:10:08;15.60;99.90
33955;DHT22;20233;50.804;7.126;2022-10-16T07:12:34;15.70;99.90
33955;DHT22;20233;50.804;7.126;2022-10-16T07:14:59;15.60;99.90
33955;DHT22;20233;50.804;7.126;2022-10-16T07:17:25;15.70;99.90
33955;DHT22;20233;50.804;7.126;2022-10-16T07:19:50;15.70;99.90
33955;DHT22;20233;50.804;7.126;2022-10-16T07:22:18;15.70;99.90
33955;DHT22;20233;50.804;7.126;2022-10-16T07:24:44;15.70;99.90
33955;DHT22;20233;50.804;7.126;2022-10-16T07:27:10;15.80;99.90
33955;DHT22;20233;50.804;7.126;2022-10-16T07:29:35;15.80;99.90
33955;DHT22;20233;50.804;7.126;2022-10-16T07:32:02;15.80;99.90
33955;DHT22;20233;50.804;7.126;2022-10-16T07:34:27;15.80;99.90
33955;DHT22;20233;50.804;7.126;2022-10-16T07:36:53;15.80;99.90
33955;DHT22;20233;50.804;7.126;2022-10-16T07:39:19;15.80;99.90
33955;DHT22;20233;50.804;7.126;2022-10-16T07:41:45;15.80;99.90
33955;DHT22;20233;50.804;7.126;2022-10-16T07:44:10;15.80;99.90
33955;DHT22;20233;50.804;7.126;2022-10-16T07:46:36;15.90;99.90
33955;DHT22;20233;50.804;7.126;2022-10-16T07:49:03;16.00;99.90
33955;DHT22;20233;50.804;7.126;2022-10-16T07:51:28;16.00;99.90
33955;DHT22;20233;50.804;7.126;2022-10-16T07:53:55;16.00;99.90
33955;DHT22;20233;50.804;7.126;2022-10-16T07:56:21;16.00;99.90
33955;DHT22;20233;50.804;7.126;2022-10-16T07:58:47;15.90;99.90
33955;DHT22;20233;50.804;7.126;2022-10-16T08:01:16;16.00;99.90
33955;DHT22;20233;50.804;7.126;2022-10-16T08:03:46;16.00;99.90
33955;DHT22;20233;50.804;7.126;2022-10-16T08:06:11;15.90;99.90
33955;DHT22;20233;50.804;7.126;2022-10-16T08:08:37;15.90;99.90
33955;DHT22;20233;50.804;7.126;2022-10-16T08:11:03;15.90;99.90
33955;DHT22;20233;50.804;7.126;2022-10-16T08:13:30;15.80;99.90
33955;DHT22;20233;50.804;7.126;2022-10-16T08:15:55;15.80;99.90
33955;DHT22;20233;50.804;7.126;2022-10-16T08:18:21;15.80;99.90
33955;DHT22;20233;50.804;7.126;2022-10-16T08:20:47;15.80;99.90
33955;DHT22;20233;50.804;7.126;2022-10-16T08:23:13;15.80;99.90
33955;DHT22;20233;50.804;7.126;2022-10-16T08:25:39;15.80;99.90
33955;DHT22;20233;50.804;7.126;2022-10-16T08:28:10;15.80;99.90
33955;DHT22;20233;50.804;7.126;2022-10-16T08:30:35;15.80;99.90
33955;DHT22;20233;50.804;7.126;2022-10-16T08:33:01;15.90;99.90
33955;DHT22;20233;50.804;7.126;2022-10-16T08:35:27;15.90;99.90
33955;DHT22;20233;50.804;7.126;2022-10-16T08:37:53;16.00;99.90
33955;DHT22;20233;50.804;7.126;2022-10-16T08:40:24;16.00;99.90
33955;DHT22;20233;50.804;7.126;2022-10-16T08:48:45;16.20;99.90
33955;DHT22;20233;50.804;7.126;2022-10-16T08:51:20;16.30;99.90
33955;DHT22;20233;50.804;7.126;2022-10-16T08:53:56;16.40;99.90
33955;DHT22;20233;50.804;7.126;2022-10-16T08:56:22;16.50;99.90
33955;DHT22;20233;50.804;7.126;2022-10-16T08:58:48;16.60;99.90
33955;DHT22;20233;50.804;7.126;2022-10-16T09:01:16;16.70;99.90
33955;DHT22;20233;50.804;7.126;2022-10-16T09:10:00;16.90;99.90
33955;DHT22;20233;50.804;7.126;2022-10-16T09:13:01;17.00;99.90
33955;DHT22;20233;50.804;7.126;2022-10-16T09:15:34;17.00;99.90
33955;DHT22;20233;50.804;7.126;2022-10-16T09:21:36;17.00;99.90
33955;DHT22;20233;50.804;7.126;2022-10-16T09:23:43;17.10;99.90
33955;DHT22;20233;50.804;7.126;2022-10-16T09:26:12;17.10;99.90
33955;DHT22;20233;50.804;7.126;2022-10-16T09:28:38;17.20;99.90
33955;DHT22;20233;50.804;7.126;2022-10-16T09:31:04;17.20;99.90
33955;DHT22;20233;50.804;7.126;2022-10-16T09:33:33;17.30;99.90
33955;DHT22;20233;50.804;7.126;2022-10-16T09:36:02;17.30;99.90
33955;DHT22;20233;50.804;7.126;2022-10-16T09:38:31;17.30;99.90
33955;DHT22;20233;50.804;7.126;2022-10-16T09:41:01;17.30;99.90
33955;DHT22;20233;50.804;7.126;2022-10-16T09:43:41;17.40;99.90
33955;DHT22;20233;50.804;7.126;2022-10-16T09:46:21;17.60;99.90
33955;DHT22;20233;50.804;7.126;2022-10-16T09:48:51;17.70;99.90
33955;DHT22;20233;50.804;7.126;2022-10-16T09:51:26;17.80;99.90
33955;DHT22;20233;50.804;7.126;2022-10-16T09:54:01;17.80;99.90
33955;DHT22;20233;50.804;7.126;2022-10-16T09:56:30;17.90;99.90
33955;DHT22;20233;50.804;7.126;2022-10-16T09:58:59;17.90;99.90
33955;DHT22;20233;50.804;7.126;2022-10-16T10:01:40;18.00;99.90
33955;DHT22;20233;50.804;7.126;2022-10-16T10:04:06;18.00;99.90
33955;DHT22;20233;50.804;7.126;2022-10-16T10:06:40;18.10;99.90
33955;DHT22;20233;50.804;7.126;2022-10-16T10:11:54;18.40;99.90
33955;DHT22;20233;50.804;7.126;2022-10-16T10:19:47;18.60;99.90
33955;DHT22;20233;50.804;7.126;2022-10-16T10:22:32;18.70;99.90
33955;DHT22;20233;50.804;7.126;2022-10-16T10:25:15;18.70;99.90
33955;DHT22;20233;50.804;7.126;2022-10-16T10:28:03;18.80;99.90
33955;DHT22;20233;50.804;7.126;2022-10-16T10:36:37;19.10;99.90
33955;DHT22;20233;50.804;7.126;2022-10-16T10:50:18;19.90;99.90
33955;DHT22;20233;50.804;7.126;2022-10-16T10:55:37;20.10;99.90
33955;DHT22;20233;50.804;7.126;2022-10-16T11:06:36;20.20;99.90
33955;DHT22;20233;50.804;7.126;2022-10-16T11:09:28;20.30;99.90
33955;DHT22;20233;50.804;7.126;2022-10-16T11:12:05;20.30;99.90
33955;DHT22;20233;50.804;7.126;2022-10-16T11:14:40;20.50;99.90
33955;DHT22;20233;50.804;7.126;2022-10-16T11:17:15;20.50;99.90
33955;DHT22;20233;50.804;7.126;2022-10-16T11:25:35;20.60;99.90
33955;DHT22;20233;50.804;7.126;2022-10-16T11:28:07;20.80;99.90
33955;DHT22;20233;50.804;7.126;2022-10-16T11:30:49;20.80;99.90
33955;DHT22;20233;50.804;7.126;2022-10-16T11:49:44;21.20;99.90
33955;DHT22;20233;50.804;7.126;2022-10-16T11:54:43;21.70;99.90
33955;DHT22;20233;50.804;7.126;2022-10-16T11:57:23;21.80;99.90
33955;DHT22;20233;50.804;7.126;2022-10-16T12:02:44;21.80;99.90
33955;DHT22;20233;50.804;7.126;2022-10-16T12:06:22;21.60;99.90
33955;DHT22;20233;50.804;7.126;2022-10-16T12:08:19;21.80;99.90
33955;DHT22;20233;50.804;7.126;2022-10-16T12:10:46;21.80;99.90
33955;DHT22;20233;50.804;7.126;2022-10-16T12:13:32;21.80;99.90
33955;DHT22;20233;50.804;7.126;2022-10-16T12:16:24;21.80;99.90
33955;DHT22;20233;50.804;7.126;2022-10-16T12:19:07;21.80;99.90
33955;DHT22;20233;50.804;7.126;2022-10-16T12:21:35;21.80;99.90
33955;DHT22;20233;50.804;7.126;2022-10-16T12:24:02;21.80;99.90
33955;DHT22;20233;50.804;7.126;2022-10-16T12:26:37;21.90;99.90
33955;DHT22;20233;50.804;7.126;2022-10-16T12:31:46;22.00;99.90
33955;DHT22;20233;50.804;7.126;2022-10-16T12:34:23;22.00;99.90
33955;DHT22;20233;50.804;7.126;2022-10-16T12:36:54;21.90;99.90
33955;DHT22;20233;50.804;7.126;2022-10-16T12:39:24;22.00;99.90
33955;DHT22;20233;50.804;7.126;2022-10-16T12:42:05;22.00;99.90
33955;DHT22;20233;50.804;7.126;2022-10-16T12:44:34;22.00;99.90
33955;DHT22;20233;50.804;7.126;2022-10-16T12:47:01;22.00;99.90
33955;DHT22;20233;50.804;7.126;2022-10-16T12:49:53;22.00;99.90
33955;DHT22;20233;50.804;7.126;2022-10-16T12:54:59;21.90;99.90
33955;DHT22;20233;50.804;7.126;2022-10-16T13:00:13;22.00;99.90
33955;DHT22;20233;50.804;7.126;2022-10-16T13:11:00;22.00;99.90
33955;DHT22;20233;50.804;7.126;2022-10-16T13:16:14;22.00;99.90
33955;DHT22;20233;50.804;7.126;2022-10-16T13:21:32;22.00;99.90
33955;DHT22;20233;50.804;7.126;2022-10-16T13:26:46;22.10;99.90
33955;DHT22;20233;50.804;7.126;2022-10-16T13:29:15;22.20;99.90
33955;DHT22;20233;50.804;7.126;2022-10-16T13:31:43;22.10;99.90
33955;DHT22;20233;50.804;7.126;2022-10-16T13:34:21;22.20;99.90
33955;DHT22;20233;50.804;7.126;2022-10-16T13:36:50;22.30;99.90
33955;DHT22;20233;50.804;7.126;2022-10-16T13:39:28;22.30;99.90
33955;DHT22;20233;50.804;7.126;2022-10-16T13:42:33;22.30;99.90
33955;DHT22;20233;50.804;7.126;2022-10-16T13:44:58;22.30;99.90
33955;DHT22;20233;50.804;7.126;2022-10-16T13:47:26;22.30;99.90
33955;DHT22;20233;50.804;7.126;2022-10-16T13:50:13;22.30;99.90
33955;DHT22;20233;50.804;7.126;2022-10-16T13:52:39;22.20;99.90
33955;DHT22;20233;50.804;7.126;2022-10-16T13:55:11;22.30;99.90
33955;DHT22;20233;50.804;7.126;2022-10-16T13:57:37;22.20;99.90
33955;DHT22;20233;50.804;7.126;2022-10-16T14:00:03;22.20;99.90
33955;DHT22;20233;50.804;7.126;2022-10-16T14:02:42;22.20;99.90
33955;DHT22;20233;50.804;7.126;2022-10-16T14:05:09;22.20;99.90
33955;DHT22;20233;50.804;7.126;2022-10-16T14:07:36;22.10;99.90
33955;DHT22;20233;50.804;7.126;2022-10-16T14:10:24;22.10;99.90
33955;DHT22;20233;50.804;7.126;2022-10-16T14:12:56;22.10;99.90
33955;DHT22;20233;50.804;7.126;2022-10-16T14:15:22;22.10;99.90
33955;DHT22;20233;50.804;7.126;2022-10-16T14:17:51;22.00;99.90
33955;DHT22;20233;50.804;7.126;2022-10-16T14:20:17;22.10;99.90
33955;DHT22;20233;50.804;7.126;2022-10-16T14:22:43;21.90;99.90
33955;DHT22;20233;50.804;7.126;2022-10-16T14:30:53;21.90;99.90
33955;DHT22;20233;50.804;7.126;2022-10-16T14:33:25;21.80;99.90
33955;DHT22;20233;50.804;7.126;2022-10-16T14:36:15;21.80;99.90
33955;DHT22;20233;50.804;7.126;2022-10-16T14:39:06;21.70;99.90
33955;DHT22;20233;50.804;7.126;2022-10-16T14:41:45;21.60;99.90
33955;DHT22;20233;50.804;7.126;2022-10-16T14:44:11;21.60;99.90
33955;DHT22;20233;50.804;7.126;2022-10-16T14:46:40;21.70;99.90
33955;DHT22;20233;50.804;7.126;2022-10-16T14:51:34;21.70;99.90
33955;DHT22;20233;50.804;7.126;2022-10-16T14:54:00;21.70;99.90
33955;DHT22;20233;50.804;7.126;2022-10-16T14:56:33;21.70;99.90
33955;DHT22;20233;50.804;7.126;2022-10-16T14:59:01;21.80;99.90
33955;DHT22;20233;50.804;7.126;2022-10-16T15:01:27;21.60;99.90
33955;DHT22;20233;50.804;7.126;2022-10-16T15:03:53;21.70;99.90
33955;DHT22;20233;50.804;7.126;2022-10-16T15:06:20;21.70;99.90
33955;DHT22;20233;50.804;7.126;2022-10-16T15:08:46;21.70;99.90
33955;DHT22;20233;50.804;7.126;2022-10-16T15:11:18;21.70;99.90
33955;DHT22;20233;50.804;7.126;2022-10-16T15:13:45;21.70;99.90
33955;DHT22;20233;50.804;7.126;2022-10-16T15:16:13;21.60;99.90
33955;DHT22;20233;50.804;7.126;2022-10-16T15:18:39;21.50;99.90
33955;DHT22;20233;50.804;7.126;2022-10-16T15:21:04;21.40;99.90
33955;DHT22;20233;50.804;7.126;2022-10-16T15:23:30;21.40;99.90
33955;DHT22;20233;50.804;7.126;2022-10-16T15:25:56;21.30;99.90
33955;DHT22;20233;50.804;7.126;2022-10-16T15:28:23;21.30;99.90
33955;DHT22;20233;50.804;7.126;2022-10-16T15:30:51;21.30;99.90
33955;DHT22;20233;50.804;7.126;2022-10-16T15:33:22;21.20;99.90
33955;DHT22;20233;50.804;7.126;2022-10-16T15:35:51;21.20;99.90
33955;DHT22;20233;50.804;7.126;2022-10-16T15:38:18;21.20;99.90
33955;DHT22;20233;50.804;7.126;2022-10-16T15:40:45;21.10;99.90
33955;DHT22;20233;50.804;7.126;2022-10-16T15:43:11;21.00;99.90
33955;DHT22;20233;50.804;7.126;2022-10-16T15:45:37;21.10;99.90
33955;DHT22;20233;50.804;7.126;2022-10-16T15:48:02;21.10;99.90
33955;DHT22;20233;50.804;7.126;2022-10-16T15:50:29;21.00;99.90
33955;DHT22;20233;50.804;7.126;2022-10-16T15:52:55;21.00;99.90
33955;DHT22;20233;50.804;7.126;2022-10-16T15:55:20;20.90;99.90
33955;DHT22;20233;50.804;7.126;2022-10-16T15:57:46;20.90;99.90
33955;DHT22;20233;50.804;7.126;2022-10-16T16:00:14;20.80;99.90
33955;DHT22;20233;50.804;7.126;2022-10-16T16:02:41;20.80;99.90
33955;DHT22;20233;50.804;7.126;2022-10-16T16:05:08;20.80;99.90
33955;DHT22;20233;50.804;7.126;2022-10-16T16:07:34;20.80;99.90
33955;DHT22;20233;50.804;7.126;2022-10-16T16:10:00;20.80;99.90
33955;DHT22;20233;50.804;7.126;2022-10-16T16:12:26;20.80;99.90
33955;DHT22;20233;50.804;7.126;2022-10-16T16:14:52;20.70;99.90
33955;DHT22;20233;50.804;7.126;2022-10-16T16:17:17;20.70;99.90
33955;DHT22;20233;50.804;7.126;2022-10-16T16:19:43;20.60;99.90
33955;DHT22;20233;50.804;7.126;2022-10-16T16:22:09;20.60;99.90
33955;DHT22;20233;50.804;7.126;2022-10-16T16:24:34;20.60;99.90
33955;DHT22;20233;50.804;7.126;2022-10-16T16:27:00;20.50;99.90
33955;DHT22;20233;50.804;7.126;2022-10-16T16:29:26;20.50;99.90
33955;DHT22;20233;50.804;7.126;2022-10-16T16:31:52;20.50;99.90
33955;DHT22;20233;50.804;7.126;2022-10-16T16:34:26;20.50;99.90
33955;DHT22;20233;50.804;7.126;2022-10-16T16:36:52;20.40;99.90
33955;DHT22;20233;50.804;7.126;2022-10-16T16:39:18;20.40;99.90
33955;DHT22;20233;50.804;7.126;2022-10-16T16:41:43;20.40;99.90
33955;DHT22;20233;50.804;7.126;2022-10-16T16:44:11;20.40;99.90
33955;DHT22;20233;50.804;7.126;2022-10-16T16:46:37;20.40;99.90
33955;DHT22;20233;50.804;7.126;2022-10-16T16:49:05;20.30;99.90
33955;DHT22;20233;50.804;7.126;2022-10-16T16:51:32;20.30;99.90
33955;DHT22;20233;50.804;7.126;2022-10-16T16:53:58;20.30;99.90
33955;DHT22;20233;50.804;7.126;2022-10-16T16:56:25;20.20;99.90
33955;DHT22;20233;50.804;7.126;2022-10-16T16:58:53;20.10;99.90
33955;DHT22;20233;50.804;7.126;2022-10-16T17:01:19;20.00;99.90
33955;DHT22;20233;50.804;7.126;2022-10-16T17:03:45;20.10;99.90
33955;DHT22;20233;50.804;7.126;2022-10-16T17:06:12;20.10;99.90
33955;DHT22;20233;50.804;7.126;2022-10-16T17:08:38;20.00;99.90
33955;DHT22;20233;50.804;7.126;2022-10-16T17:11:05;20.00;99.90
33955;DHT22;20233;50.804;7.126;2022-10-16T17:13:33;20.00;99.90
33955;DHT22;20233;50.804;7.126;2022-10-16T17:16:01;20.00;99.90
33955;DHT22;20233;50.804;7.126;2022-10-16T17:18:26;19.90;99.90
33955;DHT22;20233;50.804;7.126;2022-10-16T17:20:52;19.90;99.90
33955;DHT22;20233;50.804;7.126;2022-10-16T17:23:19;19.90;99.90
33955;DHT22;20233;50.804;7.126;2022-10-16T17:25:45;19.90;99.90
33955;DHT22;20233;50.804;7.126;2022-10-16T17:28:11;19.90;99.90
33955;DHT22;20233;50.804;7.126;2022-10-16T17:30:38;19.80;99.90
33955;DHT22;20233;50.804;7.126;2022-10-16T17:33:04;19.80;99.90
33955;DHT22;20233;50.804;7.126;2022-10-16T17:35:36;19.80;99.90
33955;DHT22;20233;50.804;7.126;2022-10-16T17:38:03;19.70;99.90
33955;DHT22;20233;50.804;7.126;2022-10-16T17:40:28;19.70;99.90
33955;DHT22;20233;50.804;7.126;2022-10-16T17:42:54;19.70;99.90
33955;DHT22;20233;50.804;7.126;2022-10-16T17:45:20;19.60;99.90
33955;DHT22;20233;50.804;7.126;2022-10-16T17:47:45;19.70;99.90
33955;DHT22;20233;50.804;7.126;2022-10-16T17:50:11;19.70;99.90
33955;DHT22;20233;50.804;7.126;2022-10-16T17:52:37;19.60;99.90